createdAt,value
2023-04-05T00:02:30.181Z,98989.41
2023-04-05T00:05:01.822Z,98983.59
2023-04-05T00:07:48.105Z,98982.00
2023-04-05T00:10:44.367Z,98973.06
2023-04-05T00:13:36.168Z,98974.59
2023-04-05T00:16:25.888Z,98964.97
2023-04-05T00:19:16.132Z,98965.28
2023-04-05T00:22:13.649Z,98960.69
2023-04-05T00:24:43.688Z,98963.44
2023-04-05T00:27:10.904Z,98966.25
2023-04-05T00:29:38.123Z,98956.75
2023-04-05T00:32:05.729Z,98958.63
2023-04-05T00:34:33.933Z,98957.13
2023-04-05T00:37:01.140Z,98960.63
2023-04-05T00:39:28.103Z,98956.19
2023-04-05T00:41:56.304Z,98953.94
2023-04-05T00:44:23.393Z,98951.13
2023-04-05T00:46:51.304Z,98937.97
2023-04-05T00:49:18.332Z,98946.03
2023-04-05T00:51:45.965Z,98953.94
2023-04-05T00:54:14.304Z,98949.91
2023-04-05T00:56:41.920Z,98952.44
2023-04-05T00:59:09.769Z,98940.31
2023-04-05T01:01:40.626Z,98944.91
2023-04-05T01:04:09.239Z,98946.91
2023-04-05T01:07:08.734Z,98941.00
2023-04-05T01:09:56.619Z,98943.06
2023-04-05T01:12:46.404Z,98937.63
2023-04-05T01:15:36.323Z,98932.88
2023-04-05T01:18:25.863Z,98948.50
2023-04-05T01:21:49.150Z,98942.63
2023-04-05T01:24:33.072Z,98943.81
2023-04-05T01:27:11.007Z,98937.09
2023-04-05T01:29:37.977Z,98931.19
2023-04-05T01:32:17.469Z,98915.25
2023-04-05T01:35:07.747Z,98931.78
2023-04-05T01:37:36.858Z,98914.00
2023-04-05T01:40:05.253Z,98928.22
2023-04-05T01:42:32.363Z,98930.41
2023-04-05T01:44:59.546Z,98936.03
2023-04-05T01:47:26.565Z,98923.56
2023-04-05T01:49:53.546Z,98920.38
2023-04-05T01:52:20.478Z,98925.16
2023-04-05T01:54:47.473Z,98919.44
2023-04-05T01:57:14.419Z,98914.38
2023-04-05T01:59:41.415Z,98920.81
2023-04-05T02:02:08.423Z,98924.75
2023-04-05T02:04:35.656Z,98915.66
2023-04-05T02:07:03.283Z,98906.97
2023-04-05T02:09:30.235Z,98905.69
2023-04-05T02:11:57.569Z,98896.06
2023-04-05T02:14:26.225Z,98896.84
2023-04-05T02:16:56.838Z,98890.81
2023-04-05T02:19:24.305Z,98894.19
2023-04-05T02:21:52.636Z,98905.72
2023-04-05T02:24:20.836Z,98907.09
2023-04-05T02:26:48.261Z,98913.84
2023-04-05T02:29:15.472Z,98902.84
2023-04-05T02:31:42.436Z,98901.69
2023-04-05T02:34:09.557Z,98900.44
2023-04-05T02:36:37.301Z,98882.75
2023-04-05T02:39:05.037Z,98897.47
2023-04-05T02:41:31.972Z,98896.53
2023-04-05T02:44:02.725Z,98890.81
2023-04-05T02:46:29.859Z,98882.88
2023-04-05T02:48:56.813Z,98878.97
2023-04-05T02:51:24.309Z,98880.00
2023-04-05T02:53:51.519Z,98892.28
2023-04-05T02:56:18.537Z,98869.75
2023-04-05T02:58:46.157Z,98887.31
2023-04-05T03:01:13.368Z,98889.41
2023-04-05T03:03:41.095Z,98889.09
2023-04-05T03:06:11.021Z,98877.25
2023-04-05T03:08:46.468Z,98872.81
2023-04-05T03:11:13.640Z,98879.56
2023-04-05T03:13:41.234Z,98883.66
2023-04-05T03:16:08.384Z,98879.13
2023-04-05T03:18:35.453Z,98870.44
2023-04-05T03:21:04.686Z,98867.09
2023-04-05T03:23:32.535Z,98867.19
2023-04-05T03:26:03.274Z,98871.53
2023-04-05T03:28:34.598Z,98869.41
2023-04-05T03:31:01.597Z,98872.03
2023-04-05T03:33:28.572Z,98872.81
2023-04-05T03:35:55.737Z,98877.25
2023-04-05T03:38:22.753Z,98884.97
2023-04-05T03:40:49.782Z,98880.66
2023-04-05T03:43:17.137Z,98871.44
2023-04-05T03:45:44.152Z,98889.94
2023-04-05T03:48:11.312Z,98881.50
2023-04-05T03:50:38.293Z,98884.13
2023-04-05T03:53:05.359Z,98886.06
2023-04-05T03:55:32.485Z,98874.53
2023-04-05T03:57:59.544Z,98877.28
2023-04-05T04:00:26.539Z,98871.13
2023-04-05T04:02:53.746Z,98898.91
2023-04-05T04:05:22.109Z,98871.97
2023-04-05T04:07:49.249Z,98892.56
2023-04-05T04:10:20.262Z,98891.63
2023-04-05T04:12:47.252Z,98889.50
2023-04-05T04:15:14.235Z,98884.47
2023-04-05T04:17:41.229Z,98874.44
2023-04-05T04:20:11.339Z,98867.31
2023-04-05T04:22:40.755Z,98870.31
2023-04-05T04:25:10.791Z,98879.81
2023-04-05T04:27:39.952Z,98873.06
2023-04-05T04:30:10.948Z,98874.13
2023-04-05T04:32:52.231Z,98873.28
2023-04-05T04:35:26.610Z,98891.00
2023-04-05T04:38:00.856Z,98886.25
2023-04-05T04:40:40.901Z,98890.69
2023-04-05T04:43:17.703Z,98883.00
2023-04-05T04:45:47.439Z,98890.91
2023-04-05T04:48:17.505Z,98886.69
2023-04-05T04:50:45.734Z,98891.34
2023-04-05T04:53:14.030Z,98884.66
2023-04-05T04:55:44.110Z,98876.63
2023-04-05T04:58:13.208Z,98882.94
2023-04-05T05:00:42.245Z,98860.47
2023-04-05T05:03:11.706Z,98881.03
2023-04-05T05:05:50.465Z,98877.84
2023-04-05T05:08:20.574Z,98886.09
2023-04-05T05:10:53.018Z,98880.66
2023-04-05T05:13:20.050Z,98883.78
2023-04-05T05:15:47.161Z,98883.53
2023-04-05T05:18:14.400Z,98891.22
2023-04-05T05:20:41.910Z,98895.47
2023-04-05T05:23:09.097Z,98884.66
2023-04-05T05:25:37.316Z,98895.88
2023-04-05T05:28:05.939Z,98889.03
2023-04-05T05:30:33.777Z,98907.13
2023-04-05T05:33:01.693Z,98894.06
2023-04-05T05:35:28.905Z,98890.75
2023-04-05T05:37:55.920Z,98904.06
2023-04-05T05:40:22.888Z,98901.09
2023-04-05T05:42:49.908Z,98903.44
2023-04-05T05:45:16.872Z,98899.97
2023-04-05T05:47:43.857Z,98870.16
2023-04-05T05:50:11.213Z,98893.84
2023-04-05T05:52:38.418Z,98905.06
2023-04-05T05:55:05.705Z,98891.91
2023-04-05T05:57:32.698Z,98885.78
2023-04-05T05:59:59.781Z,98892.88
2023-04-05T06:02:27.766Z,98898.28
2023-04-05T06:04:55.501Z,98891.66
2023-04-05T06:07:22.888Z,98896.59
2023-04-05T06:09:49.855Z,98892.25
2023-04-05T06:12:16.862Z,98897.06
2023-04-05T06:14:43.831Z,98881.50
2023-04-05T06:17:10.821Z,98892.81
2023-04-05T06:19:37.771Z,98901.75
2023-04-05T06:22:04.774Z,98896.19
2023-04-05T06:24:32.180Z,98880.72
2023-04-05T06:26:59.726Z,98899.53
2023-04-05T06:29:26.743Z,98900.47
2023-04-05T06:31:54.511Z,98889.84
2023-04-05T06:34:21.555Z,98908.16
2023-04-05T06:36:48.714Z,98898.41
2023-04-05T06:39:15.796Z,98890.72
2023-04-05T06:41:42.740Z,98913.13
2023-04-05T06:44:09.689Z,98849.09
2023-04-05T06:46:36.641Z,98901.00
2023-04-05T06:49:04.273Z,98901.53
2023-04-05T06:51:31.628Z,98901.19
2023-04-05T06:53:58.987Z,98902.31
2023-04-05T06:56:25.891Z,98889.66
2023-04-05T06:58:53.385Z,98894.63
2023-04-05T07:01:20.590Z,98894.66
2023-04-05T07:03:47.593Z,98904.69
2023-04-05T07:06:14.599Z,98901.50
2023-04-05T07:08:41.728Z,98884.78
2023-04-05T07:11:08.720Z,98895.88
2023-04-05T07:13:36.324Z,98904.78
2023-04-05T07:16:03.988Z,98907.25
2023-04-05T07:18:31.276Z,98902.19
2023-04-05T07:21:04.119Z,98882.63
2023-04-05T07:23:31.442Z,98908.16
2023-04-05T07:26:06.103Z,98909.66
2023-04-05T07:28:35.895Z,98901.66
2023-04-05T07:31:04.190Z,98909.75
2023-04-05T07:33:31.492Z,98890.25
2023-04-05T07:35:59.076Z,98900.47
2023-04-05T07:38:27.808Z,98895.75
2023-04-05T07:40:54.787Z,98898.63
2023-04-05T07:43:22.041Z,98903.09
2023-04-05T07:45:49.022Z,98898.31
2023-04-05T07:48:16.188Z,98900.03
2023-04-05T07:50:47.973Z,98894.13
2023-04-05T07:53:15.306Z,98890.97
2023-04-05T07:55:42.433Z,98895.91
2023-04-05T07:58:09.463Z,98889.19
2023-04-05T08:00:37.331Z,98901.84
2023-04-05T08:03:05.080Z,98891.84
2023-04-05T08:05:32.289Z,98895.34
2023-04-05T08:07:59.312Z,98893.38
2023-04-05T08:10:27.364Z,98889.78
2023-04-05T08:12:54.567Z,98891.44
2023-04-05T08:15:21.729Z,98891.00
2023-04-05T08:17:48.839Z,98887.50
2023-04-05T08:20:15.967Z,98883.13
2023-04-05T08:22:43.274Z,98890.75
2023-04-05T08:25:10.896Z,98893.56
2023-04-05T08:27:37.921Z,98875.59
2023-04-05T08:30:06.317Z,98863.94
2023-04-05T08:32:33.394Z,98878.28
2023-04-05T08:35:00.637Z,98873.09
2023-04-05T08:37:28.269Z,98869.78
2023-04-05T08:39:55.457Z,98858.81
2023-04-05T08:42:37.732Z,98867.59
2023-04-05T08:45:10.210Z,98861.44
2023-04-05T08:47:39.405Z,98846.06
2023-04-05T08:50:07.350Z,98863.19
2023-04-05T08:52:38.209Z,98869.63
2023-04-05T08:55:06.829Z,98873.88
2023-04-05T08:57:36.902Z,98867.22
2023-04-05T09:00:04.790Z,98863.91
2023-04-05T09:02:33.515Z,98859.00
2023-04-05T09:05:01.427Z,98858.50
2023-04-05T09:07:31.520Z,98867.34
2023-04-05T09:10:01.068Z,98866.78
2023-04-05T09:12:28.689Z,98867.00
2023-04-05T09:14:56.635Z,98865.25
2023-04-05T09:17:24.207Z,98863.50
2023-04-05T09:19:51.314Z,98876.09
2023-04-05T09:22:18.838Z,98863.59
2023-04-05T09:24:47.335Z,98873.63
2023-04-05T09:27:18.531Z,98870.75
2023-04-05T09:29:47.607Z,98858.00
2023-04-05T09:32:15.934Z,98869.22
2023-04-05T09:34:43.966Z,98865.59
2023-04-05T09:37:17.747Z,98855.78
2023-04-05T09:39:45.573Z,98859.13
2023-04-05T09:42:13.560Z,98860.78
2023-04-05T09:45:05.138Z,98859.69
2023-04-05T09:47:36.853Z,98848.91
2023-04-05T09:50:18.320Z,98853.56
2023-04-05T09:52:45.874Z,98842.72
2023-04-05T09:55:13.760Z,98844.25
2023-04-05T09:57:44.047Z,98847.34
2023-04-05T10:00:19.759Z,98844.69
2023-04-05T10:02:47.860Z,98839.56
2023-04-05T10:05:15.996Z,98829.06
2023-04-05T10:07:43.760Z,98839.47
2023-04-05T10:10:12.872Z,98837.63
2023-04-05T10:12:41.896Z,98817.91
2023-04-05T10:15:09.700Z,98840.03
2023-04-05T10:17:49.663Z,98844.34
2023-04-05T10:20:19.881Z,98837.31
2023-04-05T10:22:52.846Z,98840.84
2023-04-05T10:25:33.011Z,98835.84
2023-04-05T10:28:11.798Z,98829.13
2023-04-05T10:30:46.733Z,98824.81
2023-04-05T10:33:35.213Z,98827.88
2023-04-05T10:36:08.761Z,98818.03
2023-04-05T10:39:00.328Z,98818.09
2023-04-05T10:41:27.469Z,98828.31
2023-04-05T10:43:57.379Z,98823.44
2023-04-05T10:46:24.907Z,98832.66
2023-04-05T10:49:16.720Z,98837.81
2023-04-05T10:51:44.555Z,98816.44
2023-04-05T10:54:12.039Z,98814.78
2023-04-05T10:56:40.640Z,98818.63
2023-04-05T10:59:08.798Z,98815.63
2023-04-05T11:01:38.959Z,98807.78
2023-04-05T11:04:13.875Z,98809.13
2023-04-05T11:06:41.618Z,98796.34
2023-04-05T11:09:15.693Z,98811.94
2023-04-05T11:11:45.388Z,98791.94
2023-04-05T11:14:34.275Z,98793.19
2023-04-05T11:17:01.503Z,98805.63
2023-04-05T11:19:44.030Z,98807.22
2023-04-05T11:22:11.577Z,98811.03
2023-04-05T11:24:59.322Z,98809.16
2023-04-05T11:27:31.267Z,98811.78
2023-04-05T11:30:02.721Z,98807.72
2023-04-05T11:32:43.422Z,98809.47
2023-04-05T11:35:14.736Z,98811.13
2023-04-05T11:38:10.239Z,98811.72
2023-04-05T11:40:43.905Z,98802.84
2023-04-05T11:43:12.605Z,98800.28
2023-04-05T11:45:42.159Z,98797.19
2023-04-05T11:48:14.428Z,98783.16
2023-04-05T11:50:42.345Z,98791.91
2023-04-05T11:53:17.160Z,98783.00
2023-04-05T11:55:46.579Z,98794.19
2023-04-05T11:58:18.649Z,98802.28
2023-04-05T12:00:47.016Z,98806.16
2023-04-05T12:03:16.039Z,98799.50
2023-04-05T12:05:47.255Z,98806.00
2023-04-05T12:08:14.659Z,98802.19
2023-04-05T12:10:41.665Z,98784.00
2023-04-05T12:13:08.750Z,98805.47
2023-04-05T12:15:43.229Z,98799.59
2023-04-05T12:18:15.179Z,98801.69
2023-04-05T12:20:42.898Z,98792.97
2023-04-05T12:23:10.326Z,98791.88
2023-04-05T12:25:39.426Z,98779.25
2023-04-05T12:28:10.116Z,98773.63
2023-04-05T12:30:52.342Z,98785.00
2023-04-05T12:33:37.675Z,98774.47
2023-04-05T12:36:05.924Z,98760.41
2023-04-05T12:38:32.983Z,98768.75
2023-04-05T12:41:01.380Z,98776.19
2023-04-05T12:43:42.124Z,98780.03
2023-04-05T12:46:18.094Z,98770.31
2023-04-05T12:48:51.256Z,98772.94
2023-04-05T12:51:18.296Z,98758.88
2023-04-05T12:53:52.385Z,98781.66
2023-04-05T12:56:19.420Z,98768.75
2023-04-05T12:58:51.308Z,98769.63
2023-04-05T13:01:19.488Z,98757.53
2023-04-05T13:03:49.632Z,98754.75
2023-04-05T13:06:16.971Z,98761.47
2023-04-05T13:08:43.902Z,98762.66
2023-04-05T13:11:11.445Z,98765.25
2023-04-05T13:13:38.453Z,98769.81
2023-04-05T13:16:05.888Z,98780.97
2023-04-05T13:18:32.869Z,98779.88
2023-04-05T13:20:59.858Z,98768.41
2023-04-05T13:23:26.851Z,98779.63
2023-04-05T13:25:53.779Z,98775.53
2023-04-05T13:28:20.839Z,98772.09
2023-04-05T13:30:48.660Z,98771.88
2023-04-05T13:33:16.934Z,98775.09
2023-04-05T13:35:44.026Z,98699.00
2023-04-05T13:38:11.490Z,98760.91
2023-04-05T13:40:38.777Z,98761.06
2023-04-05T13:43:05.993Z,98753.88
2023-04-05T13:45:33.269Z,98731.88
2023-04-05T13:48:02.739Z,98760.06
2023-04-05T13:50:29.831Z,98765.78
2023-04-05T13:52:56.911Z,98742.09
2023-04-05T13:55:23.828Z,98761.81
2023-04-05T13:57:51.334Z,98748.53
2023-04-05T14:00:18.511Z,98749.66
2023-04-05T14:02:46.227Z,98760.50
2023-04-05T14:05:13.278Z,98754.84
2023-04-05T14:07:40.607Z,98760.41
2023-04-05T14:10:08.091Z,98756.97
2023-04-05T14:12:35.542Z,98726.09
2023-04-05T14:15:02.590Z,98754.91
2023-04-05T14:17:29.589Z,98754.44
2023-04-05T14:19:56.582Z,98753.56
2023-04-05T14:22:23.771Z,98747.63
2023-04-05T14:24:50.846Z,98751.59
2023-04-05T14:27:17.840Z,98733.69
2023-04-05T14:29:46.012Z,98762.59
2023-04-05T14:32:13.108Z,98744.09
2023-04-05T14:34:40.148Z,98747.34
2023-04-05T14:37:08.171Z,98739.09
2023-04-05T14:39:35.295Z,98757.03
2023-04-05T14:42:02.672Z,98756.91
2023-04-05T14:44:29.611Z,98749.47
2023-04-05T14:46:56.761Z,98737.91
2023-04-05T14:49:23.702Z,98741.59
2023-04-05T14:51:50.886Z,98744.16
2023-04-05T14:54:18.752Z,98753.88
2023-04-05T14:56:45.752Z,98750.47
2023-04-05T14:59:12.811Z,98744.97
2023-04-05T15:01:41.974Z,98751.84
2023-04-05T15:04:09.515Z,98745.16
2023-04-05T15:06:36.559Z,98758.88
2023-04-05T15:09:03.899Z,98754.84
2023-04-05T15:11:34.421Z,98751.66
2023-04-05T15:14:01.637Z,98747.78
2023-04-05T15:16:30.585Z,98752.81
2023-04-05T15:18:59.433Z,98722.75
2023-04-05T15:21:26.510Z,98745.25
2023-04-05T15:23:53.540Z,98737.69
2023-04-05T15:26:21.219Z,98749.91
2023-04-05T15:28:48.223Z,98752.47
2023-04-05T15:31:15.272Z,98736.72
2023-04-05T15:33:42.380Z,98744.41
2023-04-05T15:36:09.485Z,98748.72
2023-04-05T15:38:36.693Z,98758.41
2023-04-05T15:41:03.767Z,98754.16
2023-04-05T15:43:31.720Z,98756.63
2023-04-05T15:45:58.715Z,98742.50
2023-04-05T15:48:25.823Z,98738.06
2023-04-05T15:50:53.128Z,98735.81
2023-04-05T15:53:20.251Z,98750.09
2023-04-05T15:55:47.165Z,98738.97
2023-04-05T15:58:14.201Z,98742.28
2023-04-05T16:00:41.906Z,98754.34
2023-04-05T16:03:09.792Z,98751.09
2023-04-05T16:05:36.974Z,98758.66
2023-04-05T16:08:03.920Z,98746.13
2023-04-05T16:10:31.054Z,98726.75
2023-04-05T16:12:58.054Z,98761.34
2023-04-05T16:15:25.047Z,98715.53
2023-04-05T16:17:52.078Z,98759.88
2023-04-05T16:20:19.090Z,98767.09
2023-04-05T16:22:46.376Z,98756.72
2023-04-05T16:25:13.361Z,98755.03
2023-04-05T16:27:40.422Z,98742.03
2023-04-05T16:30:08.304Z,98770.56
2023-04-05T16:32:35.327Z,98764.56
2023-04-05T16:35:02.800Z,98767.06
2023-04-05T16:37:29.800Z,98745.75
2023-04-05T16:39:56.816Z,98745.03
2023-04-05T16:42:23.825Z,98762.97
2023-04-05T16:44:50.804Z,98763.41
2023-04-05T16:47:17.899Z,98706.03
2023-04-05T16:49:44.855Z,98774.56
2023-04-05T16:52:11.913Z,98769.50
2023-04-05T16:54:38.880Z,98775.19
2023-04-05T16:57:06.239Z,98777.56
2023-04-05T16:59:33.257Z,98785.59
2023-04-05T17:02:00.271Z,98790.75
2023-04-05T17:04:27.568Z,98791.22
2023-04-05T17:06:54.541Z,98778.38
2023-04-05T17:09:21.916Z,98786.34
2023-04-05T17:11:49.220Z,98796.25
2023-04-05T17:14:16.334Z,98767.84
2023-04-05T17:16:43.311Z,98791.88
2023-04-05T17:19:10.736Z,98794.34
2023-04-05T17:21:37.750Z,98801.84
2023-04-05T17:24:04.968Z,98791.53
2023-04-05T17:26:32.010Z,98807.41
2023-04-05T17:28:59.095Z,98803.69
2023-04-05T17:31:26.198Z,98811.00
2023-04-05T17:33:53.192Z,98814.28
2023-04-05T17:36:20.180Z,98797.25
2023-04-05T17:38:47.171Z,98817.38
2023-04-05T17:41:14.293Z,98811.13
2023-04-05T17:43:41.365Z,98788.47
2023-04-05T17:46:10.713Z,98791.72
2023-04-05T17:48:38.285Z,98812.63
2023-04-05T17:51:10.046Z,98819.50
2023-04-05T17:53:37.035Z,98829.19
2023-04-05T17:56:04.483Z,98839.19
2023-04-05T17:58:32.605Z,98829.78
2023-04-05T18:00:59.915Z,98836.56
2023-04-05T18:03:27.887Z,98813.56
2023-04-05T18:05:56.053Z,98847.50
2023-04-05T18:08:24.142Z,98843.75
2023-04-05T18:10:56.871Z,98842.91
2023-04-05T18:13:23.994Z,98846.69
2023-04-05T18:15:57.776Z,98838.16
2023-04-05T18:18:25.747Z,98848.13
2023-04-05T18:20:53.591Z,98844.22
2023-04-05T18:23:25.655Z,98823.91
2023-04-05T18:25:53.890Z,98850.44
2023-04-05T18:28:23.465Z,98844.84
2023-04-05T18:30:51.526Z,98854.13
2023-04-05T18:33:46.820Z,98854.25
2023-04-05T18:36:13.930Z,98860.88
2023-04-05T18:38:41.058Z,98833.44
2023-04-05T18:41:09.611Z,98852.78
2023-04-05T18:43:36.566Z,98857.72
2023-04-05T18:46:03.702Z,98855.22
2023-04-05T18:48:31.644Z,98861.81
2023-04-05T18:50:58.575Z,98832.06
2023-04-05T18:53:25.830Z,98859.84
2023-04-05T18:55:53.585Z,98861.28
2023-04-05T18:58:21.145Z,98857.91
2023-04-05T19:00:49.468Z,98859.59
2023-04-05T19:03:16.791Z,98857.91
2023-04-05T19:05:50.876Z,98855.34
2023-04-05T19:08:19.823Z,98851.47
2023-04-05T19:10:46.822Z,98855.94
2023-04-05T19:13:13.772Z,98854.13
2023-04-05T19:15:40.819Z,98851.16
2023-04-05T19:18:08.056Z,98853.16
2023-04-05T19:20:35.121Z,98860.00
2023-04-05T19:23:02.137Z,98838.00
2023-04-05T19:25:29.216Z,98849.63
2023-04-05T19:27:56.798Z,98861.97
2023-04-05T19:30:23.876Z,98859.72
2023-04-05T19:32:53.516Z,98860.00
2023-04-05T19:35:20.958Z,98857.47
2023-04-05T19:37:48.181Z,98856.47
2023-04-05T19:40:15.267Z,98841.59
2023-04-05T19:42:47.776Z,98849.16
2023-04-05T19:45:23.987Z,98844.06
2023-04-05T19:47:51.055Z,98840.38
2023-04-05T19:50:36.711Z,98854.09
2023-04-05T19:53:07.944Z,98845.38
2023-04-05T19:55:37.535Z,98842.53
2023-04-05T19:58:09.455Z,98846.97
2023-04-05T20:00:36.418Z,98850.47
2023-04-05T20:03:24.505Z,98840.19
2023-04-05T20:05:58.396Z,98857.00
2023-04-05T20:08:25.357Z,98855.25
2023-04-05T20:10:53.373Z,98845.38
2023-04-05T20:13:20.478Z,98850.13
2023-04-05T20:15:52.874Z,98846.06
2023-04-05T20:18:29.300Z,98827.97
2023-04-05T20:20:57.085Z,98848.97
2023-04-05T20:23:28.909Z,98840.34
2023-04-05T20:25:56.190Z,98839.88
2023-04-05T20:28:39.073Z,98822.81
2023-04-05T20:31:19.266Z,98842.00
2023-04-05T20:33:52.318Z,98844.31
2023-04-05T20:36:28.934Z,98836.53
2023-04-05T20:38:55.981Z,98828.22
2023-04-05T20:41:23.053Z,98832.09
2023-04-05T20:43:50.033Z,98834.75
2023-04-05T20:46:17.392Z,98834.88
2023-04-05T20:48:45.337Z,98827.91
2023-04-05T20:51:12.555Z,98806.34
2023-04-05T20:53:39.934Z,98823.22
2023-04-05T20:56:08.962Z,98787.72
2023-04-05T20:58:37.604Z,98828.22
2023-04-05T21:01:06.264Z,98834.00
2023-04-05T21:03:35.975Z,98832.72
2023-04-05T21:06:05.192Z,98839.81
2023-04-05T21:08:32.504Z,98837.16
2023-04-05T21:10:59.811Z,98826.44
2023-04-05T21:13:27.012Z,98810.16
2023-04-05T21:15:56.094Z,98834.25
2023-04-05T21:18:24.420Z,98837.38
2023-04-05T21:20:53.123Z,98836.44
2023-04-05T21:23:26.336Z,98829.56
2023-04-05T21:25:54.226Z,98828.72
2023-04-05T21:28:21.779Z,98838.59
2023-04-05T21:30:48.773Z,98835.94
2023-04-05T21:33:17.570Z,98833.44
2023-04-05T21:35:44.728Z,98836.47
2023-04-05T21:38:14.187Z,98836.31
2023-04-05T21:40:42.863Z,98826.31
2023-04-05T21:43:09.850Z,98826.44
2023-04-05T21:45:36.817Z,98825.00
2023-04-05T21:48:03.980Z,98830.41
2023-04-05T21:50:30.999Z,98818.34
2023-04-05T21:52:57.948Z,98811.25
2023-04-05T21:55:24.861Z,98808.97
2023-04-05T21:57:52.030Z,98818.47
2023-04-05T22:00:19.486Z,98816.19
2023-04-05T22:02:47.409Z,98825.34
2023-04-05T22:05:29.503Z,98826.44
2023-04-05T22:08:01.675Z,98822.69
2023-04-05T22:10:29.315Z,98820.16
2023-04-05T22:12:56.420Z,98828.47
2023-04-05T22:15:23.434Z,98827.75
2023-04-05T22:17:50.490Z,98826.41
2023-04-05T22:20:17.474Z,98816.41
2023-04-05T22:22:44.459Z,98831.59
2023-04-05T22:25:12.233Z,98818.81
2023-04-05T22:27:39.737Z,98811.47
2023-04-05T22:30:08.254Z,98827.63
2023-04-05T22:32:36.101Z,98819.41
2023-04-05T22:35:04.754Z,98823.41
2023-04-05T22:37:35.997Z,98811.22
2023-04-05T22:40:04.690Z,98815.44
2023-04-05T22:42:32.094Z,98811.09
2023-04-05T22:44:59.151Z,98819.75
2023-04-05T22:47:26.454Z,98821.31
2023-04-05T22:49:53.868Z,98822.38
2023-04-05T22:52:20.987Z,98807.44
2023-04-05T22:54:48.023Z,98811.28
2023-04-05T22:57:15.050Z,98818.88
2023-04-05T22:59:42.187Z,98827.19
2023-04-05T23:02:10.157Z,98816.94
2023-04-05T23:04:37.244Z,98826.06
2023-04-05T23:07:04.320Z,98826.91
2023-04-05T23:09:31.284Z,98826.06
2023-04-05T23:11:58.275Z,98817.16
2023-04-05T23:14:25.245Z,98824.38
2023-04-05T23:16:52.145Z,98828.81
2023-04-05T23:19:19.130Z,98821.22
2023-04-05T23:21:46.264Z,98820.16
2023-04-05T23:24:13.353Z,98811.94
2023-04-05T23:26:40.261Z,98816.50
2023-04-05T23:29:07.346Z,98823.50
2023-04-05T23:31:34.648Z,98824.91
2023-04-05T23:34:01.668Z,98803.19
2023-04-05T23:36:29.133Z,98814.03
2023-04-05T23:38:56.315Z,98826.31
2023-04-05T23:41:23.349Z,98814.38
2023-04-05T23:43:50.770Z,98823.06
2023-04-05T23:46:17.848Z,98823.69
2023-04-05T23:48:44.984Z,98821.97
2023-04-05T23:51:12.071Z,98824.41
2023-04-05T23:53:38.996Z,98827.28
2023-04-05T23:56:06.450Z,98822.94
2023-04-05T23:58:33.431Z,98785.88
